createdAt,value
2022-08-14T00:02:44.410Z,20.76
2022-08-14T00:05:58.411Z,20.74
2022-08-14T00:08:58.989Z,20.74
2022-08-14T00:11:58.276Z,20.65
2022-08-14T00:15:06.168Z,20.58
2022-08-14T00:18:14.388Z,20.49
2022-08-14T00:21:22.447Z,20.47
2022-08-14T00:24:28.886Z,20.42
2022-08-14T00:27:27.740Z,20.31
2022-08-14T00:30:31.813Z,20.18
2022-08-14T00:33:51.614Z,20.09
2022-08-14T00:36:49.368Z,20.00
2022-08-14T00:39:47.194Z,19.98
2022-08-14T00:42:56.887Z,19.94
2022-08-14T00:46:05.102Z,19.91
2022-08-14T00:49:14.758Z,19.94
2022-08-14T00:52:22.339Z,20.10
2022-08-14T00:55:30.570Z,20.18
2022-08-14T00:58:44.866Z,20.12
2022-08-14T01:01:42.371Z,20.13
2022-08-14T01:04:54.041Z,20.13
2022-08-14T01:07:56.787Z,20.08
2022-08-14T01:10:54.256Z,19.98
2022-08-14T01:14:04.929Z,19.91
2022-08-14T01:17:08.968Z,19.80
2022-08-14T01:20:27.601Z,19.73
2022-08-14T01:23:22.309Z,19.58
2022-08-14T01:26:35.792Z,19.50
2022-08-14T01:30:00.578Z,19.47
2022-08-14T01:32:42.714Z,19.48
2022-08-14T01:36:02.809Z,19.54
2022-08-14T01:38:55.844Z,19.54
2022-08-14T01:42:04.193Z,19.58
2022-08-14T01:45:05.414Z,19.69
2022-08-14T01:48:14.204Z,19.84
2022-08-14T01:51:22.277Z,19.93
2022-08-14T01:54:38.269Z,20.02
2022-08-14T01:57:49.637Z,20.03
2022-08-14T02:00:40.350Z,20.08
2022-08-14T02:03:53.308Z,20.12
2022-08-14T02:06:54.082Z,20.25
2022-08-14T02:10:01.894Z,20.35
2022-08-14T02:13:09.674Z,20.46
2022-08-14T02:16:22.343Z,20.59
2022-08-14T02:19:20.708Z,20.66
2022-08-14T02:22:33.140Z,20.66
2022-08-14T02:25:30.950Z,20.66
2022-08-14T02:28:57.317Z,20.69
2022-08-14T02:31:44.099Z,20.74
2022-08-14T02:34:52.434Z,20.69
2022-08-14T02:38:00.129Z,20.56
2022-08-14T02:41:08.900Z,20.38
2022-08-14T02:44:17.235Z,20.21
2022-08-14T02:47:22.435Z,20.10
2022-08-14T02:50:29.785Z,20.02
2022-08-14T02:53:31.445Z,19.98
2022-08-14T02:57:15.203Z,19.90
2022-08-14T02:59:46.240Z,19.88
2022-08-14T03:02:58.497Z,19.84
2022-08-14T03:05:56.162Z,19.75
2022-08-14T03:09:03.952Z,19.69
2022-08-14T03:12:11.779Z,19.60
2022-08-14T03:15:19.348Z,19.48
2022-08-14T03:18:32.057Z,19.35
2022-08-14T03:21:29.693Z,19.20
2022-08-14T03:24:38.757Z,19.18
2022-08-14T03:27:48.596Z,19.18
2022-08-14T03:30:52.270Z,19.17
2022-08-14T03:34:02.460Z,19.21
2022-08-14T03:37:39.129Z,19.32
2022-08-14T03:40:18.343Z,19.33
2022-08-14T03:43:28.427Z,19.33
2022-08-14T03:46:52.593Z,19.20
2022-08-14T03:49:35.255Z,18.98
2022-08-14T03:52:40.865Z,18.87
2022-08-14T03:55:43.569Z,18.90
2022-08-14T03:58:52.604Z,18.92
2022-08-14T04:02:01.733Z,18.92
2022-08-14T04:05:11.950Z,18.86
2022-08-14T04:08:22.718Z,18.87
2022-08-14T04:11:25.871Z,18.95
2022-08-14T04:14:37.135Z,19.11
2022-08-14T04:17:34.275Z,19.23
2022-08-14T04:20:54.809Z,19.24
2022-08-14T04:23:49.028Z,19.32
2022-08-14T04:26:55.694Z,19.31
2022-08-14T04:30:03.378Z,19.35
2022-08-14T04:33:20.290Z,19.36
2022-08-14T04:36:17.769Z,19.40
2022-08-14T04:39:25.556Z,19.39
2022-08-14T04:42:33.525Z,19.36
2022-08-14T04:45:41.059Z,19.36
2022-08-14T04:48:51.186Z,19.39
2022-08-14T04:51:56.208Z,19.47
2022-08-14T04:54:54.706Z,19.53
2022-08-14T04:58:03.329Z,19.66
2022-08-14T05:01:03.689Z,19.70
2022-08-14T05:04:14.677Z,19.72
2022-08-14T05:07:13.881Z,19.90
2022-08-14T05:10:24.759Z,20.12
2022-08-14T05:13:47.411Z,20.33
2022-08-14T05:16:39.047Z,20.53
2022-08-14T05:21:54.156Z,20.77
2022-08-14T05:22:56.178Z,20.98
2022-08-14T05:25:53.607Z,21.16
2022-08-14T05:29:00.836Z,21.30
2022-08-14T05:32:09.010Z,21.42
2022-08-14T05:35:16.631Z,21.51
2022-08-14T05:38:31.070Z,21.53
2022-08-14T05:41:53.759Z,21.61
2022-08-14T05:44:34.804Z,21.69
2022-08-14T05:47:43.719Z,21.78
2022-08-14T05:50:52.794Z,21.88
2022-08-14T05:54:13.566Z,21.91
2022-08-14T05:57:06.188Z,21.92
2022-08-14T06:00:13.960Z,21.97
2022-08-14T06:03:18.953Z,22.06
2022-08-14T06:06:26.502Z,22.13
2022-08-14T06:09:36.011Z,22.22
2022-08-14T06:12:55.530Z,22.31
2022-08-14T06:15:43.195Z,22.41
2022-08-14T06:18:52.760Z,22.46
2022-08-14T06:22:02.188Z,22.57
2022-08-14T06:25:10.689Z,22.68
2022-08-14T06:28:27.431Z,22.82
2022-08-14T06:31:18.471Z,22.92
2022-08-14T06:35:09.738Z,23.01
2022-08-14T06:37:34.272Z,23.08
2022-08-14T06:40:43.748Z,23.15
2022-08-14T06:43:54.105Z,23.22
2022-08-14T06:47:02.439Z,23.31
2022-08-14T06:50:09.834Z,23.42
2022-08-14T06:53:19.844Z,23.46
2022-08-14T06:56:27.570Z,23.46
2022-08-14T06:59:35.891Z,23.53
2022-08-14T07:02:44.064Z,23.61
2022-08-14T07:05:55.886Z,23.76
2022-08-14T07:08:55.296Z,23.82
2022-08-14T07:12:03.215Z,23.76
2022-08-14T07:15:11.708Z,23.75
2022-08-14T07:18:19.518Z,23.75
2022-08-14T07:21:27.149Z,23.86
2022-08-14T07:24:34.811Z,23.95
2022-08-14T07:27:43.080Z,24.16
2022-08-14T07:30:51.938Z,24.35
2022-08-14T07:33:59.743Z,24.63
2022-08-14T07:37:07.487Z,24.98
2022-08-14T07:40:22.105Z,25.30
2022-08-14T07:43:23.920Z,25.59
2022-08-14T07:46:32.019Z,25.80
2022-08-14T07:49:41.330Z,25.99
2022-08-14T07:52:50.829Z,26.12
2022-08-14T07:56:09.052Z,26.20
2022-08-14T07:59:04.674Z,26.31
2022-08-14T08:02:05.774Z,26.47
2022-08-14T08:05:13.736Z,26.68
2022-08-14T08:08:27.295Z,26.81
2022-08-14T08:11:24.610Z,26.98
2022-08-14T08:14:24.708Z,27.14
2022-08-14T08:17:34.352Z,27.24
2022-08-14T08:20:42.844Z,27.24
2022-08-14T08:23:51.129Z,27.33
2022-08-14T08:26:50.443Z,27.43
2022-08-14T08:29:58.628Z,27.50
2022-08-14T08:33:06.528Z,27.61
2022-08-14T08:36:18.780Z,27.82
2022-08-14T08:39:22.808Z,27.82
2022-08-14T08:42:24.440Z,27.79
2022-08-14T08:45:25.103Z,27.79
2022-08-14T08:48:31.560Z,27.84
2022-08-14T08:51:30.784Z,27.82
2022-08-14T08:54:31.105Z,27.98
2022-08-14T08:57:39.398Z,28.10
2022-08-14T09:00:48.810Z,28.17
2022-08-14T09:03:56.331Z,28.29
2022-08-14T09:07:10.109Z,28.41
2022-08-14T09:10:08.013Z,28.31
2022-08-14T09:13:15.588Z,28.16
2022-08-14T09:16:25.020Z,28.07
2022-08-14T09:19:32.838Z,28.06
2022-08-14T09:22:47.885Z,28.04
2022-08-14T09:26:01.073Z,27.95
2022-08-14T09:28:50.452Z,27.91
2022-08-14T09:31:58.486Z,28.17
2022-08-14T09:35:08.586Z,28.40
2022-08-14T09:38:19.531Z,28.62
2022-08-14T09:41:21.957Z,28.82
2022-08-14T09:44:30.435Z,28.96
2022-08-14T09:47:39.510Z,29.08
2022-08-14T09:50:50.558Z,28.95
2022-08-14T09:54:18.540Z,29.16
2022-08-14T09:57:04.004Z,29.19
2022-08-14T10:00:05.849Z,29.16
2022-08-14T10:03:09.171Z,29.29
2022-08-14T10:06:19.343Z,29.44
2022-08-14T10:09:27.847Z,29.57
2022-08-14T10:12:32.062Z,29.81
2022-08-14T10:15:40.678Z,29.93
2022-08-14T10:18:50.813Z,29.93
2022-08-14T10:21:59.023Z,30.08
2022-08-14T10:25:04.182Z,29.99
2022-08-14T10:28:04.686Z,30.26
2022-08-14T10:31:13.349Z,30.43
2022-08-14T10:34:29.031Z,30.37
2022-08-14T10:37:28.057Z,30.15
2022-08-14T10:40:38.432Z,30.02
2022-08-14T10:43:36.401Z,29.92
2022-08-14T10:47:40.777Z,29.82
2022-08-14T10:49:49.227Z,29.99
2022-08-14T10:52:50.408Z,30.30
2022-08-14T10:55:58.379Z,30.29
2022-08-14T10:59:06.040Z,30.59
2022-08-14T11:02:15.611Z,30.94
2022-08-14T11:05:26.548Z,31.08
2022-08-14T11:08:35.715Z,30.91
2022-08-14T11:11:44.046Z,30.86
2022-08-14T11:14:59.331Z,31.08
2022-08-14T11:17:55.753Z,31.20
2022-08-14T11:20:58.041Z,31.46
2022-08-14T11:24:54.516Z,31.46
2022-08-14T11:27:10.660Z,31.36
2022-08-14T11:30:50.459Z,31.43
2022-08-14T11:33:24.108Z,31.64
2022-08-14T11:36:35.213Z,31.45
2022-08-14T11:39:37.107Z,31.45
2022-08-14T11:42:57.021Z,31.54
2022-08-14T11:45:50.323Z,31.60
2022-08-14T11:49:03.860Z,31.36
2022-08-14T11:52:02.731Z,31.45
2022-08-14T11:55:10.106Z,31.67
2022-08-14T11:58:23.872Z,32.05
2022-08-14T12:01:21.559Z,32.40
2022-08-14T12:04:32.172Z,32.49
2022-08-14T12:07:30.978Z,32.48
2022-08-14T12:10:42.481Z,32.55
2022-08-14T12:13:44.302Z,32.59
2022-08-14T12:16:41.675Z,32.74
2022-08-14T12:19:51.033Z,32.58
2022-08-14T12:22:52.482Z,32.52
2022-08-14T12:26:12.021Z,32.57
2022-08-14T12:29:05.430Z,32.42
2022-08-14T12:32:14.222Z,32.32
2022-08-14T12:35:22.112Z,32.42
2022-08-14T12:38:29.985Z,32.95
2022-08-14T12:41:37.637Z,32.99
2022-08-14T12:44:45.767Z,33.06
2022-08-14T12:47:56.433Z,33.22
2022-08-14T12:51:04.040Z,33.10
2022-08-14T12:54:27.573Z,32.95
2022-08-14T12:57:20.620Z,32.93
2022-08-14T13:00:28.776Z,33.22
2022-08-14T13:03:36.817Z,33.73
2022-08-14T13:06:44.719Z,34.36
2022-08-14T13:09:48.419Z,34.38
2022-08-14T13:13:13.217Z,34.35
2022-08-14T13:16:02.322Z,34.09
2022-08-14T13:19:10.998Z,34.19
2022-08-14T13:22:10.043Z,34.50
2022-08-14T13:25:18.447Z,34.54
2022-08-14T13:28:33.103Z,34.50
2022-08-14T13:31:30.590Z,34.57
2022-08-14T13:34:31.586Z,34.84
2022-08-14T13:37:40.837Z,34.74
2022-08-14T13:40:48.553Z,34.73
2022-08-14T13:43:49.453Z,35.08
2022-08-14T13:46:54.266Z,34.96
2022-08-14T13:50:01.564Z,34.88
2022-08-14T13:53:09.651Z,34.84
2022-08-14T13:56:30.922Z,34.95
2022-08-14T13:59:37.950Z,34.72
2022-08-14T14:02:31.973Z,34.70
2022-08-14T14:05:52.636Z,34.61
2022-08-14T14:08:43.146Z,34.44
2022-08-14T14:11:40.857Z,34.42
2022-08-14T14:14:51.837Z,34.57
2022-08-14T14:17:52.133Z,34.98
2022-08-14T14:21:00.682Z,35.07
2022-08-14T14:24:08.274Z,34.81
2022-08-14T14:27:39.648Z,34.99
2022-08-14T14:30:46.293Z,35.07
2022-08-14T14:33:45.145Z,34.88
2022-08-14T14:36:28.260Z,34.99
2022-08-14T14:40:50.561Z,35.15
2022-08-14T14:42:41.898Z,35.25
2022-08-14T14:45:50.955Z,35.36
2022-08-14T14:49:01.155Z,35.32
2022-08-14T14:52:23.089Z,35.33
2022-08-14T14:55:17.141Z,35.48
2022-08-14T14:58:25.256Z,35.29
2022-08-14T15:01:33.289Z,35.11
2022-08-14T15:04:43.772Z,35.01
2022-08-14T15:07:52.786Z,34.92
2022-08-14T15:11:00.594Z,34.72
2022-08-14T15:14:56.070Z,34.50
2022-08-14T15:17:14.096Z,34.41
2022-08-14T15:20:30.527Z,34.41
2022-08-14T15:23:43.743Z,34.36
2022-08-14T15:26:32.909Z,33.92
2022-08-14T15:29:43.133Z,33.87
2022-08-14T15:32:51.875Z,34.11
2022-08-14T15:36:01.545Z,34.34
2022-08-14T15:39:09.938Z,34.31
2022-08-14T15:42:18.148Z,34.34
2022-08-14T15:45:25.626Z,34.41
2022-08-14T15:48:35.260Z,34.39
2022-08-14T15:51:42.346Z,34.45
2022-08-14T15:54:51.417Z,34.77
2022-08-14T15:58:03.281Z,35.17
2022-08-14T16:01:01.858Z,35.47
2022-08-14T16:04:11.239Z,35.35
2022-08-14T16:07:14.781Z,35.17
2022-08-14T16:10:30.650Z,34.77
2022-08-14T16:13:39.641Z,34.77
2022-08-14T16:16:49.786Z,34.86
2022-08-14T16:19:43.979Z,34.70
2022-08-14T16:22:57.690Z,34.26
2022-08-14T16:25:46.738Z,33.82
2022-08-14T16:28:49.282Z,33.41
2022-08-14T16:31:59.507Z,33.01
2022-08-14T16:35:09.783Z,32.95
2022-08-14T16:38:19.539Z,32.79
2022-08-14T16:41:23.849Z,32.55
2022-08-14T16:44:34.003Z,32.20
2022-08-14T16:47:41.488Z,31.87
2022-08-14T16:50:50.091Z,31.73
2022-08-14T16:53:57.921Z,31.61
2022-08-14T16:57:06.562Z,31.49
2022-08-14T17:00:19.767Z,31.40
2022-08-14T17:03:21.394Z,31.26
2022-08-14T17:06:33.356Z,31.11
2022-08-14T17:09:31.250Z,30.98
2022-08-14T17:12:40.332Z,30.90
2022-08-14T17:15:49.546Z,30.89
2022-08-14T17:18:55.433Z,30.76
2022-08-14T17:21:56.405Z,30.65
2022-08-14T17:25:04.180Z,30.64
2022-08-14T17:28:50.700Z,30.59
2022-08-14T17:31:17.910Z,30.49
2022-08-14T17:34:26.393Z,30.38
2022-08-14T17:37:27.659Z,30.36
2022-08-14T17:40:36.104Z,30.24
2022-08-14T17:43:44.546Z,30.14
2022-08-14T17:46:49.824Z,29.97
2022-08-14T17:49:52.868Z,29.87
2022-08-14T17:53:01.203Z,29.75
2022-08-14T17:56:09.021Z,29.63
2022-08-14T17:59:17.775Z,29.55
2022-08-14T18:02:30.880Z,29.34
2022-08-14T18:06:09.649Z,29.13
2022-08-14T18:08:40.845Z,28.93
2022-08-14T18:11:46.403Z,28.77
2022-08-14T18:14:48.634Z,28.60
2022-08-14T18:17:53.106Z,28.47
2022-08-14T18:21:42.925Z,28.33
2022-08-14T18:23:57.402Z,28.21
2022-08-14T18:27:08.676Z,28.01
2022-08-14T18:30:39.693Z,27.77
2022-08-14T18:33:11.234Z,27.48
2022-08-14T18:36:48.474Z,27.24
2022-08-14T18:39:18.533Z,27.19
2022-08-14T18:42:30.270Z,27.01
2022-08-14T18:45:28.949Z,26.80
2022-08-14T18:48:50.915Z,26.64
2022-08-14T18:51:45.615Z,26.44
2022-08-14T18:54:48.470Z,26.37
2022-08-14T18:57:45.256Z,26.31
2022-08-14T19:00:53.597Z,26.20
2022-08-14T19:04:01.288Z,26.25
2022-08-14T19:07:09.190Z,26.35
2022-08-14T19:10:16.980Z,26.32
2022-08-14T19:13:21.904Z,26.31
2022-08-14T19:16:18.387Z,26.25
2022-08-14T19:19:26.505Z,26.22
2022-08-14T19:22:30.008Z,26.20
2022-08-14T19:25:27.252Z,26.17
2022-08-14T19:28:32.211Z,26.18
2022-08-14T19:31:42.347Z,26.21
2022-08-14T19:34:52.258Z,26.28
2022-08-14T19:37:52.454Z,26.37
2022-08-14T19:40:51.576Z,26.37
2022-08-14T19:43:59.816Z,26.37
2022-08-14T19:47:08.086Z,26.44
2022-08-14T19:50:38.201Z,26.52
2022-08-14T19:53:17.650Z,26.64
2022-08-14T19:56:28.811Z,26.73
2022-08-14T19:59:21.083Z,26.79
2022-08-14T20:02:30.111Z,26.84
2022-08-14T20:05:46.059Z,26.87
2022-08-14T20:11:00.608Z,26.86
2022-08-14T20:12:02.725Z,26.89
2022-08-14T20:14:53.218Z,26.87
2022-08-14T20:18:01.661Z,26.87
2022-08-14T20:21:09.681Z,26.87
2022-08-14T20:24:30.860Z,26.86
2022-08-14T20:27:23.283Z,26.83
2022-08-14T20:30:33.528Z,26.83
2022-08-14T20:33:32.297Z,26.83
2022-08-14T20:36:37.878Z,26.77
2022-08-14T20:39:45.618Z,26.73
2022-08-14T20:42:50.706Z,26.69
2022-08-14T20:45:58.333Z,26.67
2022-08-14T20:49:05.991Z,26.68
2022-08-14T20:52:18.737Z,26.69
2022-08-14T20:55:16.535Z,26.65
2022-08-14T20:58:42.217Z,26.57
2022-08-14T21:01:33.125Z,26.35
2022-08-14T21:04:30.170Z,26.04
2022-08-14T21:07:37.842Z,25.79
2022-08-14T21:10:45.995Z,25.57
2022-08-14T21:14:19.705Z,25.44
2022-08-14T21:17:02.014Z,25.34
2022-08-14T21:20:25.306Z,25.27
2022-08-14T21:23:15.468Z,25.34
2022-08-14T21:26:50.582Z,25.42
2022-08-14T21:29:28.342Z,25.35
2022-08-14T21:32:50.101Z,25.19
2022-08-14T21:35:42.109Z,25.09
2022-08-14T21:38:50.425Z,24.98
2022-08-14T21:41:59.134Z,24.88
2022-08-14T21:45:07.656Z,24.88
2022-08-14T21:48:16.829Z,24.88
2022-08-14T21:51:52.949Z,24.73
2022-08-14T21:54:30.033Z,24.57
2022-08-14T21:57:56.687Z,24.45
2022-08-14T22:00:36.032Z,24.34
2022-08-14T22:03:37.763Z,24.27
2022-08-14T22:06:40.852Z,24.19
2022-08-14T22:09:55.335Z,24.22
2022-08-14T22:12:58.506Z,24.26
2022-08-14T22:15:59.552Z,24.29
2022-08-14T22:19:00.800Z,24.23
2022-08-14T22:22:09.500Z,24.14
2022-08-14T22:25:19.733Z,24.05
2022-08-14T22:28:27.582Z,24.02
2022-08-14T22:31:35.046Z,24.02
2022-08-14T22:34:32.766Z,24.05
2022-08-14T22:37:44.962Z,23.98
2022-08-14T22:41:02.398Z,24.01
2022-08-14T22:43:47.575Z,24.05
2022-08-14T22:46:02.346Z,24.04
2022-08-14T22:49:00.387Z,23.98
2022-08-14T22:52:32.735Z,23.83
2022-08-14T22:55:10.650Z,23.64
2022-08-14T22:57:22.541Z,23.52
2022-08-14T23:00:30.563Z,23.58
2022-08-14T23:03:38.328Z,23.60
2022-08-14T23:07:03.828Z,23.58
2022-08-14T23:09:56.698Z,23.60
2022-08-14T23:12:54.450Z,23.60
2022-08-14T23:15:52.486Z,23.53
2022-08-14T23:19:00.092Z,23.47
2022-08-14T23:22:07.951Z,23.45
2022-08-14T23:25:15.848Z,23.45
2022-08-14T23:28:34.641Z,23.52
2022-08-14T23:31:35.247Z,23.60
2022-08-14T23:34:33.234Z,23.76
2022-08-14T23:37:41.407Z,23.90
2022-08-14T23:40:50.096Z,24.00
2022-08-14T23:43:57.738Z,24.00
2022-08-14T23:47:11.823Z,24.04
2022-08-14T23:50:34.067Z,24.08
2022-08-14T23:53:47.328Z,24.12
2022-08-14T23:56:30.304Z,24.22
2022-08-14T23:59:27.573Z,24.29
